საიტი მუშაობს სატესტო რეჟიმში

მეტეოროლოგიური შეტყობინებები

მეტეოსამსახური

SAGG41 UGTB 200900

მოქმედების ლოკალური ვადა 20 იანვარი 13:00 : 20 იანვარი 13:30
FF UGTBMAIL
200900 UGTBYMYX
SAGG41 UGTB 200900
METAR UGMS 200900Z AUTO 25003KT 200V290 //// ////// M07/M12 Q1016=
METAR UGAM 200900Z AUTO 27004KT //// ////// 00/M08 Q1020=

SAGG31 UGTB 200900

მოქმედების ლოკალური ვადა 20 იანვარი 13:00 : 20 იანვარი 13:30
FF UGTBMAIL
200901 UGTBYMYX
SAGG31 UGTB 200900
METAR UGTB 200900Z 32022KT CAVOK 02/M08 Q1018 NOSIG=
METAR UGSB 200900Z 13012KT 2300 -SN SCT012 BKN027 01/M01 Q1024
R13/594016 NOSIG=
METAR UGKO 200900Z VRB02KT 5000 SN BR SCT025 OVC047 02/M01 Q1023
R07/19//60 NOSIG=

WAGG31 UGTB 200757

მოქმედების ლოკალური ვადა 20 იანვარი 12:00 : 20 იანვარი 16:00
FF UGTBMAIL
200757 UGTBYMYX
WAGG31 UGTB 200757
UGGG AIRMET 7 VALID 200800/201200 UGTB-
UGGG TBILISI FIR MOD ICE FCST W OF E04400 FL050/130 NC=

WAGG31 UGTB 200758

მოქმედების ლოკალური ვადა 20 იანვარი 12:00 : 20 იანვარი 16:00
FF UGTBMAIL
200758 UGTBYMYX
WAGG31 UGTB 200758
UGGG AIRMET 8 VALID 200800/201200 UGTB-
UGGG TBILISI FIR OCNL CB OBS W OF E04300 TOP FL200 MOV E 10KT NC=

WAGG31 UGTB 200758

მოქმედების ლოკალური ვადა 20 იანვარი 12:00 : 20 იანვარი 16:00
FF UGTBMAIL
200758 UGTBYMYX
WAGG31 UGTB 200758
UGGG AIRMET 9 VALID 200800/201200 UGTB-
UGGG TBILISI FIR MOD MTW FCST E OF E04400 ABV FL080 NC=

WAGG31 UGTB 200756

მოქმედების ლოკალური ვადა 20 იანვარი 12:00 : 20 იანვარი 16:00
FF UGTBMAIL
200756 UGTBYMYX
WAGG31 UGTB 200756
UGGG AIRMET 6 VALID 200800/201200 UGTB-
UGGG TBILISI FIR MT OBSC OBS W OF E04400 NC=

FCGG41 UGTB 200700

მოქმედების ლოკალური ვადა 20 იანვარი 12:00 : 20 იანვარი 18:00
GG UGTBMAIL
200701 UGTBYMYX
FCGG41 UGTB 200700
TAF UGAM 200700Z 2008/2014 VRB02KT 9999 -SN SCT023 OVCO40 TEMPO
2010/2014 3000 SN BR BKN010=
TAF UGMS 200700Z 2008/2014 VRB02KT 6000 -SN OVC030=

FTGG31 UGTB 200500

მოქმედების ლოკალური ვადა 20 იანვარი 10:00 : 21 იანვარი 10:00
GG UGTBMAIL
200502 UGTBYMYX
FTGG31 UGTB 200500
TAF UGTB 200500Z 2006/2106 30018G28KT CAVOK TX03/2012Z TNM03/2103Z
TEMPO 2014/2020 31008KT
TEMPO 2020/2105 SCT025 BKN050=
TAF UGKO 200500Z 2006/2106 VRB02KT 9999 SCT030 OVC050 TX02/2011Z
TNM02/2103Z TEMPO 2007/2018 25012KT 3000 SN BR TEMPO 2018/2102
SCT100 TEMPO 2102/2106 4000 SN BR=
TAF UGSB 200500Z 2006/2106 14010KT 7000 -SN SCT018 BKN030 TX01/2010Z
TNM01/2102Z TEMPO 2006/2010 VRB15KT 2000 SHSN SCT006 BKN018CB
TEMPO 2010/2022 24020KT 2000 SHSN SCT005 BKN018CB TEMPO 2022/2106
2000 SHSN SCT005 BKN018CB=

FAGG50 UGTB 200430

მოქმედების ლოკალური ვადა 20 იანვარი 10:00 : 20 იანვარი 16:00
GG UGTBMAIL
200431 UGTBYMYX
FAGG50 UGTB 200430
UGGG GAMET VALID 200600/201200 UGTB-
UGGG TBILISI FIR BLW FL150
SECN I
SFC VIS: A2 A3 A5 4000M SN
MT OBSC: A2 A3 MT PASSES
SIG CLD: W OF E04230 OCNL CB 2500/21000FT AGL
ICE: A2 A3 A5 MOD FL050/120
SECN II
PSYS: NIL
WIND/T: 2000FT A1 310/22KT PS03
2000FT A2 VRB/03KT PS01
2000FT A3 VRB/04KT MS06
2000FT A4 A5 250/18KT PS01
5000FT 270/09KT MS09
10000FT 280/18KT MS19
15000FT 270/31KT MS27
CLD: A2 A3 A5 BKN NS 3000/9000FT AGL
BKN AS 9000/13000FT AGL
FZLVL: 1500FT AMSL
MNM QNH: 1019HPA
VA: NIL=

FAGG50 UGTB 061030

მოქმედების ლოკალური ვადა 30 იანვარი 10:00 : 30 იანვარი 16:00
GG UGTBMAIL
061030 UGTBYMYX
FAGG50 UGTB 061030
UGGG GAMET VALID 300600/301200 UGTB-
UGGG TBILISI FIR BLW FL150
SECN I
SFC VIS: 14/18 A1 A4 3500M BR
MT OBSC: E OF E044 MT PASSES
SIG CLD: 14/18 A1 A4 OVC 600/5000FT AGL
A5 EMBD CB 4000/21000FT AGL
SECN II
PSYS: N4139 E04138 L 1025HPA STNR WKN
WIND/T: 2000FT A2 A5 VRB/02KT PS09
2000FT A1 A3 A4 VRB/02KT MS00
5000FT VRB/04KT PS04
10000FT 260/10KT MS08
15000FT 250/22KT MS16
CLD: 12/14 A1 A4 SCT ST 1000/4000FT AGL
A3 A5 BKN AS 9000/12000FT AGL
A5 SCT SC 3000/5000FT AGL
A2 SCT AS 12000/14000FT AGL
FZLVL: 7200FT AMSL
MNM QNH: 1024HPA
VA: NIL=

WAGG31 UGTB 060508

მოქმედების ლოკალური ვადა 06 იანვარი 09:00 : 21 იანვარი 12:00
FF UGTBMAIL
060508 UGTBYMYX
WAGG31 UGTB 060508
UGGG AIRMET 2 VALID 060515/210800 UGTB-
UGGG TBILISI FIR MT OBSC OBS E OF E04340 NC=